Terminal Aerodrome Forecast
Issued by NWS

Home | Current Version | Previous Version | Text Only | Print | Product List | Glossary On
Versions: 1 2 3 4 5 6 7 8 9 10 11 12 13 14
609
FTUS43 KIND 211822 AAA
TAFHUF
TAF AMD
KHUF 211822Z 2118/2218 21007KT P6SM VCTS BKN040CB
      TEMPO 2119/2121 4SM -TSRA SCT025CB BKN040
     FM220000 19005KT P6SM SCT200
     FM220900 19004KT P6SM VCTS SCT050CB BKN200
     FM221200 22006KT P6SM -SHRA VCTS OVC070CB
     FM221500 25007KT 6SM -SHRA VCTS OVC035CB=

USA.gov is the U.S. government's official web portal to all federal, state and local government web resources and services.